Airfield :







YOU CAN JOIN US ON...

 
LOGIN :

Register | Disclaimer

   EN    FR    IT 

 









Legend :    VFR   Marginal VFR   IFR   Intensive IFR   Very Intensive IFR
Visi :
Ceiling :
>= 8 km
>= 3000ft
5 to 8 km
1000 to 3000 ft
1500m to 5 km
500 to 1000 ft
800 to 1500m
200 to 500 ft
< 800m
< 200 ft
Symbols :   Thunderstorms  Fog  Heavy snow  Heavy precipitations  Wind > 20 kt






- Airport Elevation : 1166 ft


KMPV - Edward F Knapp State

CURRENT METAR :
  • 270951Z AUTO 10SM CLR 08/06 A2975 RMK AO2 SLP076 T00830056

EXPIRED METARs :
  • 270851Z AUTO 10SM CLR 09/06 A2973 RMK AO2 SLP071 T00890061 56008
  • 270751Z AUTO 10SM CLR 08/06 A2974 RMK AO2 SLPNO T00830056

TAF KMPV
Valid from the 27 at 06:00 until the 28 at 06:00 UTC


270524Z 2706/2806 21006KT P6SM FEW120
FM270800 VRB03KT 1SM BR SCT002
FM271200 18006KT P6SM SCT040
FM271400 19010G18KT P6SM BKN045
FM271800 21008KT P6SM VCSH SCT028 BKN040
KZBW FIR / North America



MET'MAP, your aeronautical weather chart ! - Copyright ORBIFLY December 2007 - Disclaimer

ORBIFLY MET'MAP TEAM :

Programming & Development : Alexandra Zaïnal
Original concept : Baudouin d'Aumeries
Technical & hardware support : Manuel Goepfert
Assistance : Marc-Olivier Méhu




SOURCES & CREDITS :

   NOAA